aviador You're here:

KCQX Decoded Metar

CHATHAM in MA, USA
Report Time2017-06-28 11:52:00
UTC Time2017-06-28 12:07:22
Flight Rules vfr VFR
Wind290° at 05 kt
W.Decomp.*RWY 24: 2.0 kt HW 4.6 kt RCW
W.Rank290° ranks 11
Current wind is below 290° avg. (6.0)
Visibility9999 m
Phenomena:N/A
Clouds:N/A
Expected CloudBase > 2,400 ft AGL from Temp-Dew spread
CeilingNone
Temp18°C (ISA +3)
Dew Point12°C (68% RH)
AAT16.8°C
QNH1017 hPa
Density Alt482 ft
Elevation62 ft
Report Wrong Elevation
Raw Report
KCQX 281152Z AUTO 29005KT 10SM CLR 18/12 A3002 RMK AO2 SLP168
T01830117 10189 20128 51007=

Extra information for KCQX:More info

Metar Taf Metar & Taf Last 4 Metars F.Rules Stats Wind Profile Meteogram Temp Stats Airport Information Weather charts Add Link Nearby VenuesMetar ALERT Operation Metar Decoded Social comments

AIRNAV info for KCQX